createdAt,value
2023-04-26T00:00:30.289Z,7.03
2023-04-26T00:03:00.702Z,8.07
2023-04-26T00:05:29.467Z,6.83
2023-04-26T00:07:58.281Z,10.03
2023-04-26T00:10:25.765Z,9.67
2023-04-26T00:12:53.262Z,9.67
2023-04-26T00:15:20.744Z,6.80
2023-04-26T00:17:48.523Z,8.30
2023-04-26T00:20:17.677Z,7.70
2023-04-26T00:22:45.149Z,9.93
2023-04-26T00:25:13.880Z,10.03
2023-04-26T00:27:41.640Z,10.90
2023-04-26T00:30:10.493Z,9.93
2023-04-26T00:32:38.045Z,8.43
2023-04-26T00:35:06.281Z,9.33
2023-04-26T00:37:35.075Z,7.43
2023-04-26T00:40:02.528Z,8.10
2023-04-26T00:42:30.062Z,6.40
2023-04-26T00:44:57.790Z,7.87
2023-04-26T00:47:25.836Z,10.07
2023-04-26T00:49:53.532Z,10.07
2023-04-26T00:52:21.089Z,7.90
2023-04-26T00:54:50.255Z,9.87
2023-04-26T00:57:17.827Z,9.33
2023-04-26T00:59:45.391Z,11.60
2023-04-26T01:02:13.105Z,8.80
2023-04-26T01:04:41.848Z,8.50
2023-04-26T01:07:10.050Z,10.00
2023-04-26T01:09:37.548Z,8.20
2023-04-26T01:12:08.286Z,7.30
2023-04-26T01:14:36.889Z,8.40
2023-04-26T01:17:05.562Z,9.73
2023-04-26T01:19:33.276Z,8.80
2023-04-26T01:22:00.765Z,8.13
2023-04-26T01:24:30.096Z,8.53
2023-04-26T01:26:58.617Z,8.53
2023-04-26T01:29:27.006Z,7.87
2023-04-26T01:31:54.467Z,8.57
2023-04-26T01:34:21.933Z,7.93
2023-04-26T01:36:49.427Z,7.47
2023-04-26T01:39:16.998Z,9.80
2023-04-26T01:41:45.824Z,12.73
2023-04-26T01:44:13.310Z,8.70
2023-04-26T01:46:40.823Z,9.80
2023-04-26T01:49:08.376Z,10.83
2023-04-26T01:51:36.234Z,9.03
2023-04-26T01:54:04.238Z,9.70
2023-04-26T01:56:31.720Z,11.07
2023-04-26T01:59:00.497Z,12.77
2023-04-26T02:01:28.099Z,10.77
2023-04-26T02:03:55.624Z,13.20
2023-04-26T02:06:23.089Z,11.47
2023-04-26T02:08:50.640Z,11.53
2023-04-26T02:11:18.457Z,9.10
2023-04-26T02:13:45.931Z,14.87
2023-04-26T02:16:16.072Z,12.20
2023-04-26T02:18:44.305Z,13.53
2023-04-26T02:21:12.295Z,12.40
2023-04-26T02:23:39.783Z,13.13
2023-04-26T02:26:07.739Z,11.47
2023-04-26T02:28:35.221Z,13.73
2023-04-26T02:31:03.232Z,11.47
2023-04-26T02:33:32.097Z,13.50
2023-04-26T02:35:59.663Z,15.87
2023-04-26T02:38:27.326Z,12.47
2023-04-26T02:40:59.464Z,11.10
2023-04-26T02:43:27.072Z,14.37
2023-04-26T02:45:54.669Z,15.77
2023-04-26T02:48:22.271Z,14.00
2023-04-26T02:50:51.161Z,12.33
2023-04-26T02:53:18.686Z,14.80
2023-04-26T02:55:46.242Z,13.13
2023-04-26T02:58:13.728Z,15.97
2023-04-26T03:00:47.030Z,13.57
2023-04-26T03:03:14.834Z,13.90
2023-04-26T03:05:42.570Z,14.07
2023-04-26T03:08:11.543Z,14.57
2023-04-26T03:10:39.248Z,14.63
2023-04-26T03:13:07.232Z,12.23
2023-04-26T03:15:34.736Z,15.63
2023-04-26T03:18:02.232Z,12.27
2023-04-26T03:20:29.735Z,14.47
2023-04-26T03:22:57.196Z,18.13
2023-04-26T03:25:26.077Z,15.83
2023-04-26T03:27:53.762Z,15.97
2023-04-26T03:30:21.383Z,17.17
2023-04-26T03:32:49.427Z,19.00
2023-04-26T03:35:17.050Z,18.07
2023-04-26T03:37:46.113Z,16.73
2023-04-26T03:40:13.857Z,15.27
2023-04-26T03:42:42.648Z,17.70
2023-04-26T03:45:11.076Z,16.83
2023-04-26T03:47:38.619Z,18.00
2023-04-26T03:50:07.932Z,20.77
2023-04-26T03:52:35.793Z,13.13
2023-04-26T03:55:03.476Z,16.63
2023-04-26T03:57:31.011Z,15.87
2023-04-26T03:59:59.827Z,16.63
2023-04-26T04:02:27.503Z,15.27
2023-04-26T04:04:55.274Z,13.20
2023-04-26T04:07:22.978Z,13.93
2023-04-26T04:09:50.437Z,15.80
2023-04-26T04:12:17.926Z,18.53
2023-04-26T04:14:45.393Z,11.13
2023-04-26T04:17:14.246Z,12.53
2023-04-26T04:19:41.734Z,12.57
2023-04-26T04:22:09.195Z,14.53
2023-04-26T04:24:36.997Z,13.30
2023-04-26T04:27:04.891Z,14.73
2023-04-26T04:29:32.692Z,16.57
2023-04-26T04:32:00.479Z,13.70
2023-04-26T04:34:29.310Z,20.30
2023-04-26T04:36:56.771Z,14.07
2023-04-26T04:39:24.219Z,17.47
2023-04-26T04:41:51.709Z,12.37
2023-04-26T04:44:19.693Z,15.57
2023-04-26T04:46:47.173Z,13.23
2023-04-26T04:49:14.884Z,17.20
2023-04-26T04:51:43.732Z,15.60
2023-04-26T04:54:13.105Z,11.77
2023-04-26T04:56:41.171Z,14.00
2023-04-26T04:59:08.771Z,16.33
2023-04-26T05:01:37.027Z,10.33
2023-04-26T05:04:04.686Z,15.13
2023-04-26T05:06:33.055Z,11.37
2023-04-26T05:09:02.381Z,18.03
2023-04-26T05:11:29.812Z,10.53
2023-04-26T05:13:57.619Z,10.97
2023-04-26T05:16:25.683Z,14.10
2023-04-26T05:18:53.204Z,17.03
2023-04-26T05:21:20.800Z,12.80
2023-04-26T05:23:48.396Z,12.37
2023-04-26T05:26:17.846Z,13.50
2023-04-26T05:28:45.714Z,9.57
2023-04-26T05:31:13.336Z,12.90
2023-04-26T05:33:41.127Z,9.57
2023-04-26T05:36:09.408Z,12.00
2023-04-26T05:38:37.958Z,6.67
2023-04-26T05:41:05.469Z,8.63
2023-04-26T05:43:34.357Z,5.53
2023-04-26T05:46:02.072Z,7.30
2023-04-26T05:48:29.820Z,7.43
2023-04-26T05:50:57.337Z,7.38
2023-04-26T05:53:24.783Z,4.85
2023-04-26T05:55:52.295Z,5.13
2023-04-26T05:58:19.760Z,3.65
2023-04-26T06:00:48.583Z,4.30
2023-04-26T06:03:16.503Z,4.65
2023-04-26T06:05:44.213Z,4.97
2023-04-26T06:08:11.695Z,3.40
2023-04-26T06:10:39.178Z,4.97
2023-04-26T06:13:06.881Z,4.25
2023-04-26T06:15:34.398Z,4.95
2023-04-26T06:18:03.206Z,5.90
2023-04-26T06:20:30.713Z,3.60
2023-04-26T06:22:58.452Z,5.68
2023-04-26T06:25:25.931Z,2.88
2023-04-26T06:27:53.879Z,6.18
2023-04-26T06:30:21.352Z,8.48
2023-04-26T06:32:49.421Z,5.47
2023-04-26T06:35:18.456Z,3.97
2023-04-26T06:37:45.931Z,5.63
2023-04-26T06:40:15.831Z,4.43
2023-04-26T06:42:43.431Z,4.18
2023-04-26T06:45:12.418Z,4.80
2023-04-26T06:47:40.020Z,4.37
2023-04-26T06:50:08.870Z,4.32
2023-04-26T06:52:37.973Z,7.60
2023-04-26T06:55:06.052Z,4.63
2023-04-26T06:57:33.545Z,4.60
2023-04-26T07:00:01.009Z,5.28
2023-04-26T07:02:28.615Z,4.22
2023-04-26T07:04:56.388Z,5.32
2023-04-26T07:07:24.222Z,4.00
2023-04-26T07:09:53.824Z,2.80
2023-04-26T07:12:21.382Z,3.40
2023-04-26T07:14:48.825Z,4.82
2023-04-26T07:17:16.630Z,3.88
2023-04-26T07:19:44.106Z,5.45
2023-04-26T07:22:12.028Z,3.38
2023-04-26T07:24:39.497Z,4.47
2023-04-26T07:27:08.293Z,4.90
2023-04-26T07:29:35.830Z,2.58
2023-04-26T07:32:03.861Z,6.47
2023-04-26T07:34:31.492Z,3.70
2023-04-26T07:36:59.139Z,2.78
2023-04-26T07:39:26.707Z,3.50
2023-04-26T07:41:54.148Z,4.05
2023-04-26T07:44:23.106Z,6.45
2023-04-26T07:46:50.985Z,3.47
2023-04-26T07:49:18.468Z,2.38
2023-04-26T07:51:46.057Z,4.65
2023-04-26T07:54:13.595Z,2.58
2023-04-26T07:56:41.062Z,3.85
2023-04-26T07:59:08.577Z,3.15
2023-04-26T08:01:37.731Z,2.70
2023-04-26T08:04:06.294Z,3.95
2023-04-26T08:06:34.003Z,2.40
2023-04-26T08:09:01.708Z,4.43
2023-04-26T08:11:29.234Z,2.47
2023-04-26T08:13:56.725Z,3.80
2023-04-26T08:16:24.184Z,2.47
2023-04-26T08:18:53.023Z,3.40
2023-04-26T08:21:20.553Z,4.95
2023-04-26T08:23:48.000Z,3.63
2023-04-26T08:26:15.465Z,3.53
2023-04-26T08:28:42.903Z,3.58
2023-04-26T08:31:10.491Z,4.85
2023-04-26T08:33:38.001Z,4.57
2023-04-26T08:36:08.137Z,3.20
2023-04-26T08:38:36.642Z,3.50
2023-04-26T08:41:06.395Z,3.28
2023-04-26T08:43:37.858Z,5.65
2023-04-26T08:46:10.607Z,4.80
2023-04-26T08:48:38.752Z,3.15
2023-04-26T08:51:08.536Z,4.45
2023-04-26T08:53:38.317Z,4.22
2023-04-26T08:56:08.043Z,3.85
2023-04-26T08:58:35.940Z,3.67
2023-04-26T09:01:04.413Z,3.95
2023-04-26T09:03:32.042Z,5.40
2023-04-26T09:06:01.130Z,3.70
2023-04-26T09:08:37.412Z,4.28
2023-04-26T09:11:04.950Z,4.55
2023-04-26T09:13:32.404Z,5.38
2023-04-26T09:16:00.503Z,4.25
2023-04-26T09:18:31.224Z,4.43
2023-04-26T09:21:06.223Z,6.95
2023-04-26T09:23:35.237Z,3.85
2023-04-26T09:26:22.527Z,3.80
2023-04-26T09:28:50.668Z,2.83
2023-04-26T09:31:38.083Z,4.30
2023-04-26T09:34:05.643Z,4.78
2023-04-26T09:36:33.090Z,3.72
2023-04-26T09:39:02.050Z,8.30
2023-04-26T09:41:44.061Z,3.05
2023-04-26T09:44:22.946Z,2.65
2023-04-26T09:47:01.603Z,2.83
2023-04-26T09:49:29.709Z,4.65
2023-04-26T09:52:05.396Z,3.70
2023-04-26T09:54:41.680Z,2.60
2023-04-26T09:57:09.290Z,2.20
2023-04-26T09:59:44.516Z,3.28
2023-04-26T10:02:16.838Z,4.75
2023-04-26T10:04:47.758Z,3.63
2023-04-26T10:07:16.814Z,5.43
2023-04-26T10:09:46.572Z,3.38
2023-04-26T10:12:16.970Z,3.95
2023-04-26T10:14:46.481Z,2.67
2023-04-26T10:17:14.519Z,2.80
2023-04-26T10:19:44.903Z,3.88
2023-04-26T10:22:17.325Z,2.95
2023-04-26T10:24:46.816Z,4.50
2023-04-26T10:27:14.332Z,5.57
2023-04-26T10:30:09.093Z,3.35
2023-04-26T10:33:16.351Z,2.50
2023-04-26T10:36:09.321Z,3.25
2023-04-26T10:38:38.808Z,3.17
2023-04-26T10:41:34.096Z,3.08
2023-04-26T10:44:17.469Z,3.60
2023-04-26T10:46:52.215Z,5.10
2023-04-26T10:49:25.716Z,3.08
2023-04-26T10:52:14.893Z,3.65
2023-04-26T10:54:50.477Z,2.78
2023-04-26T10:57:19.921Z,2.90
2023-04-26T11:00:17.169Z,2.85
2023-04-26T11:03:11.717Z,4.75
2023-04-26T11:05:58.217Z,3.42
2023-04-26T11:08:27.658Z,2.70
2023-04-26T11:11:11.756Z,3.40
2023-04-26T11:13:42.056Z,2.20
2023-04-26T11:16:10.971Z,6.30
2023-04-26T11:18:39.855Z,3.30
2023-04-26T11:21:07.729Z,4.10
2023-04-26T11:23:36.484Z,7.13
2023-04-26T11:26:05.363Z,3.53
2023-04-26T11:28:34.517Z,3.05
2023-04-26T11:31:04.156Z,3.40
2023-04-26T11:33:34.032Z,2.38
2023-04-26T11:36:01.593Z,3.10
2023-04-26T11:38:29.916Z,5.40
2023-04-26T11:40:58.980Z,6.03
2023-04-26T11:43:35.039Z,4.47
2023-04-26T11:46:04.602Z,3.55
2023-04-26T11:48:33.485Z,2.70
2023-04-26T11:51:04.230Z,4.18
2023-04-26T11:53:38.702Z,5.70
2023-04-26T11:56:14.030Z,3.65
2023-04-26T11:58:41.583Z,2.63
2023-04-26T12:01:10.371Z,4.07
2023-04-26T12:03:38.459Z,3.08
2023-04-26T12:06:06.385Z,4.25
2023-04-26T12:08:34.377Z,4.57
2023-04-26T12:11:02.963Z,2.65
2023-04-26T12:13:31.006Z,2.53
2023-04-26T12:15:58.498Z,4.22
2023-04-26T12:18:33.331Z,3.08
2023-04-26T12:21:01.657Z,3.08
2023-04-26T12:23:39.113Z,2.97
2023-04-26T12:26:07.452Z,2.20
2023-04-26T12:28:34.903Z,3.15
2023-04-26T12:31:04.251Z,4.15
2023-04-26T12:33:33.209Z,2.63
2023-04-26T12:36:07.332Z,2.72
2023-04-26T12:38:34.810Z,4.72
2023-04-26T12:41:02.338Z,4.60
2023-04-26T12:43:29.887Z,5.22
2023-04-26T12:45:57.427Z,2.33
2023-04-26T12:48:25.066Z,5.32
2023-04-26T12:50:53.921Z,2.60
2023-04-26T12:53:21.420Z,3.42
2023-04-26T12:55:49.017Z,4.57
2023-04-26T12:58:16.521Z,2.58
2023-04-26T13:00:44.777Z,3.47
2023-04-26T13:03:14.402Z,3.40
2023-04-26T13:05:42.418Z,2.28
2023-04-26T13:08:11.367Z,4.28
2023-04-26T13:10:39.055Z,4.00
2023-04-26T13:13:08.018Z,3.28
2023-04-26T13:15:36.466Z,5.45
2023-04-26T13:18:04.310Z,3.03
2023-04-26T13:20:31.832Z,4.68
2023-04-26T13:22:59.312Z,4.60
2023-04-26T13:25:28.096Z,5.05
2023-04-26T13:27:55.672Z,2.47
2023-04-26T13:30:23.234Z,4.55
2023-04-26T13:32:50.872Z,3.53
2023-04-26T13:35:18.362Z,4.05
2023-04-26T13:37:46.348Z,4.10
2023-04-26T13:40:14.193Z,3.30
2023-04-26T13:42:43.537Z,3.30
2023-04-26T13:45:14.204Z,2.85
2023-04-26T13:47:41.742Z,2.63
2023-04-26T13:50:10.049Z,4.13
2023-04-26T13:52:37.525Z,3.60
2023-04-26T13:55:05.280Z,3.08
2023-04-26T13:57:32.768Z,4.18
2023-04-26T14:00:01.559Z,3.28
2023-04-26T14:02:29.350Z,3.42
2023-04-26T14:04:57.058Z,5.32
2023-04-26T14:07:25.230Z,4.25
2023-04-26T14:09:52.900Z,3.03
2023-04-26T14:12:20.480Z,5.35
2023-04-26T14:14:48.197Z,5.22
2023-04-26T14:17:17.641Z,3.17
2023-04-26T14:19:45.094Z,2.47
2023-04-26T14:22:13.060Z,3.92
2023-04-26T14:24:40.743Z,4.55
2023-04-26T14:27:08.227Z,4.00
2023-04-26T14:29:35.846Z,2.83
2023-04-26T14:32:03.345Z,3.65
2023-04-26T14:34:32.207Z,3.60
2023-04-26T14:37:01.599Z,2.67
2023-04-26T14:39:29.294Z,4.00
2023-04-26T14:41:57.732Z,2.22
2023-04-26T14:44:25.507Z,2.97
2023-04-26T14:46:53.173Z,4.22
2023-04-26T14:49:20.806Z,3.97
2023-04-26T14:51:51.256Z,5.75
2023-04-26T14:54:20.918Z,3.17
2023-04-26T14:56:49.003Z,3.42
2023-04-26T14:59:17.186Z,4.05
2023-04-26T15:01:45.614Z,3.45
2023-04-26T15:04:13.738Z,2.72
2023-04-26T15:06:41.707Z,3.05
2023-04-26T15:09:12.666Z,2.58
2023-04-26T15:11:40.568Z,3.10
2023-04-26T15:14:08.560Z,4.97
2023-04-26T15:16:36.301Z,6.57
2023-04-26T15:19:03.779Z,4.15
2023-04-26T15:21:31.708Z,5.43
2023-04-26T15:23:59.184Z,5.15
2023-04-26T15:26:30.852Z,2.78
2023-04-26T15:28:58.705Z,4.57
2023-04-26T15:31:26.877Z,3.95
2023-04-26T15:33:56.314Z,6.32
2023-04-26T15:36:23.739Z,3.28
2023-04-26T15:38:51.580Z,5.15
2023-04-26T15:41:19.038Z,2.75
2023-04-26T15:43:47.808Z,4.40
2023-04-26T15:46:15.630Z,4.18
2023-04-26T15:48:43.120Z,4.68
2023-04-26T15:51:10.599Z,7.72
2023-04-26T15:53:43.406Z,3.40
2023-04-26T15:56:15.037Z,4.68
2023-04-26T15:58:43.647Z,2.50
2023-04-26T16:01:12.959Z,6.18
2023-04-26T16:03:41.804Z,2.50
2023-04-26T16:06:10.274Z,5.85
2023-04-26T16:08:40.670Z,2.47
2023-04-26T16:11:08.642Z,4.50
2023-04-26T16:13:37.158Z,3.20
2023-04-26T16:16:08.464Z,2.31
2023-04-26T16:18:39.449Z,4.22
2023-04-26T16:21:09.338Z,5.25
2023-04-26T16:23:37.182Z,3.60
2023-04-26T16:26:05.447Z,2.45
2023-04-26T16:28:33.105Z,4.55
2023-04-26T16:31:01.020Z,2.80
2023-04-26T16:33:28.689Z,5.20
2023-04-26T16:35:57.529Z,4.95
2023-04-26T16:38:25.227Z,4.47
2023-04-26T16:40:57.674Z,5.00
2023-04-26T16:43:26.757Z,4.63
2023-04-26T16:46:01.427Z,3.25
2023-04-26T16:48:29.786Z,3.20
2023-04-26T16:50:58.611Z,3.08
2023-04-26T16:53:26.104Z,4.72
2023-04-26T16:55:53.590Z,4.22
2023-04-26T16:58:21.239Z,7.50
2023-04-26T17:00:48.851Z,4.32
2023-04-26T17:03:16.530Z,4.18
2023-04-26T17:05:46.858Z,4.50
2023-04-26T17:08:16.601Z,7.75
2023-04-26T17:10:44.914Z,6.28
2023-04-26T17:13:13.575Z,4.72
2023-04-26T17:15:42.084Z,3.35
2023-04-26T17:18:10.821Z,6.97
2023-04-26T17:20:38.484Z,4.35
2023-04-26T17:23:07.811Z,5.85
2023-04-26T17:25:36.810Z,5.95
2023-04-26T17:28:04.470Z,5.78
2023-04-26T17:30:31.956Z,2.67
2023-04-26T17:32:59.444Z,4.68
2023-04-26T17:35:27.108Z,3.92
2023-04-26T17:37:54.631Z,5.38
2023-04-26T17:40:22.111Z,3.20
2023-04-26T17:42:51.012Z,7.28
2023-04-26T17:45:18.616Z,3.60
2023-04-26T17:47:46.460Z,2.83
2023-04-26T17:50:15.353Z,3.30
2023-04-26T17:52:42.794Z,5.07
2023-04-26T17:55:10.608Z,3.72
2023-04-26T17:57:38.108Z,4.10
2023-04-26T18:00:10.147Z,4.55
2023-04-26T18:02:38.363Z,4.38
2023-04-26T18:05:08.346Z,2.92
2023-04-26T18:07:36.012Z,6.30
2023-04-26T18:10:03.988Z,5.45
2023-04-26T18:12:31.863Z,4.78
2023-04-26T18:14:59.347Z,8.13
2023-04-26T18:17:28.235Z,4.80
2023-04-26T18:19:55.822Z,2.80
2023-04-26T18:22:23.285Z,8.77
2023-04-26T18:24:50.744Z,14.80
2023-04-26T18:27:18.221Z,8.93
2023-04-26T18:29:45.721Z,7.13
2023-04-26T18:32:13.416Z,5.03
2023-04-26T18:34:42.220Z,7.88
2023-04-26T18:37:10.103Z,4.82
2023-04-26T18:39:37.580Z,5.90
2023-04-26T18:42:05.477Z,2.97
2023-04-26T18:44:33.128Z,4.38
2023-04-26T18:47:00.626Z,3.47
2023-04-26T18:49:28.210Z,3.83
2023-04-26T18:51:57.212Z,3.10
2023-04-26T18:54:26.200Z,19.20
2023-04-26T18:56:54.066Z,3.07
2023-04-26T18:59:21.647Z,5.00
2023-04-26T19:01:49.575Z,4.93
2023-04-26T19:04:17.269Z,3.90
2023-04-26T19:06:44.917Z,6.10
2023-04-26T19:09:14.170Z,6.03
2023-04-26T19:11:41.630Z,6.20
2023-04-26T19:14:09.082Z,5.60
2023-04-26T19:16:36.577Z,6.70
2023-04-26T19:19:04.205Z,3.93
2023-04-26T19:21:32.106Z,4.23
2023-04-26T19:23:59.599Z,4.73
2023-04-26T19:26:28.455Z,6.60
2023-04-26T19:28:56.546Z,8.43
2023-04-26T19:31:24.049Z,6.73
2023-04-26T19:33:51.604Z,7.30
2023-04-26T19:36:19.049Z,7.60
2023-04-26T19:38:48.398Z,7.17
2023-04-26T19:41:15.939Z,9.60
2023-04-26T19:43:44.766Z,18.77
2023-04-26T19:46:13.176Z,12.07
2023-04-26T19:48:40.811Z,17.57
2023-04-26T19:51:08.533Z,20.87
2023-04-26T19:53:36.137Z,12.80
2023-04-26T19:56:03.636Z,11.70
2023-04-26T19:58:32.327Z,13.53
2023-04-26T20:01:01.215Z,9.10
2023-04-26T20:03:28.997Z,13.50
2023-04-26T20:05:56.660Z,15.77
2023-04-26T20:08:24.132Z,19.93
2023-04-26T20:10:51.583Z,14.70
2023-04-26T20:13:19.068Z,14.40
2023-04-26T20:15:46.540Z,10.37
2023-04-26T20:18:15.549Z,8.33
2023-04-26T20:20:43.728Z,7.00
2023-04-26T20:23:11.245Z,4.70
2023-04-26T20:25:38.716Z,4.30
2023-04-26T20:28:06.637Z,8.77
2023-04-26T20:30:34.491Z,3.77
2023-04-26T20:33:02.051Z,6.47
2023-04-26T20:35:30.952Z,4.27
2023-04-26T20:37:58.461Z,4.57
2023-04-26T20:40:26.219Z,5.20
2023-04-26T20:42:53.732Z,10.23
2023-04-26T20:45:21.322Z,4.07
2023-04-26T20:47:48.819Z,3.80
2023-04-26T20:50:16.515Z,6.10
2023-04-26T20:52:46.394Z,5.27
2023-04-26T20:55:14.185Z,5.23
2023-04-26T20:57:41.747Z,7.83
2023-04-26T21:00:10.579Z,4.37
2023-04-26T21:02:38.288Z,4.07
2023-04-26T21:05:06.894Z,5.80
2023-04-26T21:07:34.631Z,5.17
2023-04-26T21:10:03.927Z,5.77
2023-04-26T21:12:31.405Z,6.30
2023-04-26T21:14:58.945Z,6.93
2023-04-26T21:17:26.541Z,5.10
2023-04-26T21:19:54.004Z,4.90
2023-04-26T21:22:21.517Z,3.90
2023-04-26T21:24:51.656Z,4.50
2023-04-26T21:27:20.620Z,4.27
2023-04-26T21:29:48.071Z,4.40
2023-04-26T21:32:15.601Z,4.33
2023-04-26T21:34:43.049Z,5.73
2023-04-26T21:37:10.597Z,5.40
2023-04-26T21:39:38.049Z,4.30
2023-04-26T21:42:05.688Z,4.70
2023-04-26T21:44:35.198Z,7.10
2023-04-26T21:47:02.832Z,5.53
2023-04-26T21:49:30.360Z,5.97
2023-04-26T21:51:57.843Z,6.20
2023-04-26T21:54:25.333Z,4.47
2023-04-26T21:56:52.789Z,4.53
2023-04-26T21:59:20.327Z,3.60
2023-04-26T22:01:49.160Z,4.93
2023-04-26T22:04:16.830Z,5.93
2023-04-26T22:06:44.527Z,4.47
2023-04-26T22:09:12.310Z,7.27
2023-04-26T22:11:40.676Z,4.10
2023-04-26T22:14:08.138Z,4.70
2023-04-26T22:16:35.630Z,5.47
2023-04-26T22:19:04.523Z,4.10
2023-04-26T22:21:32.285Z,3.97
2023-04-26T22:24:00.982Z,4.17
2023-04-26T22:26:28.481Z,4.17
2023-04-26T22:28:56.003Z,4.83
2023-04-26T22:31:23.529Z,3.37
2023-04-26T22:33:51.171Z,4.80
2023-04-26T22:36:19.968Z,3.97
2023-04-26T22:38:47.443Z,3.70
2023-04-26T22:41:15.015Z,3.80
2023-04-26T22:43:43.817Z,4.80
2023-04-26T22:46:11.549Z,4.17
2023-04-26T22:48:39.182Z,4.70
2023-04-26T22:51:07.050Z,6.30
2023-04-26T22:53:35.836Z,4.43
2023-04-26T22:56:03.409Z,4.60
2023-04-26T22:58:30.883Z,4.37
2023-04-26T23:00:58.385Z,4.03
2023-04-26T23:03:26.161Z,7.33
2023-04-26T23:05:53.715Z,5.17
2023-04-26T23:08:27.412Z,4.23
2023-04-26T23:10:56.187Z,5.97
2023-04-26T23:13:25.483Z,4.23
2023-04-26T23:15:53.312Z,5.27
2023-04-26T23:18:20.782Z,4.03
2023-04-26T23:20:48.226Z,4.40
2023-04-26T23:23:15.689Z,3.83
2023-04-26T23:25:43.167Z,5.57
2023-04-26T23:28:11.966Z,5.77
2023-04-26T23:30:39.456Z,3.93
2023-04-26T23:33:07.172Z,6.23
2023-04-26T23:35:34.673Z,4.53
2023-04-26T23:38:02.129Z,4.80
2023-04-26T23:40:29.597Z,4.77
2023-04-26T23:42:57.070Z,4.43
2023-04-26T23:45:26.155Z,5.43
2023-04-26T23:47:54.083Z,3.50
2023-04-26T23:50:21.731Z,3.87
2023-04-26T23:52:49.479Z,4.07
2023-04-26T23:55:16.951Z,5.30
2023-04-26T23:57:44.421Z,3.63
